sensor_id;sensor_type;location;lat;lon;timestamp;temperature;humidity
73121;DHT22;61307;49.628;-1.624;2023-08-31T00:01:12;20.90;54.40
73121;DHT22;61307;49.628;-1.624;2023-08-31T00:03:39;20.90;54.40
73121;DHT22;61307;49.628;-1.624;2023-08-31T00:06:07;20.90;54.40
73121;DHT22;61307;49.628;-1.624;2023-08-31T00:08:34;20.80;54.30
73121;DHT22;61307;49.628;-1.624;2023-08-31T00:11:02;20.90;54.40
73121;DHT22;61307;49.628;-1.624;2023-08-31T00:13:45;20.80;55.00
73121;DHT22;61307;49.628;-1.624;2023-08-31T00:16:12;20.90;54.40
73121;DHT22;61307;49.628;-1.624;2023-08-31T00:18:54;20.90;54.40
73121;DHT22;61307;49.628;-1.624;2023-08-31T00:21:23;20.80;54.40
73121;DHT22;61307;49.628;-1.624;2023-08-31T00:23:51;20.90;55.10
73121;DHT22;61307;49.628;-1.624;2023-08-31T00:26:20;20.80;54.40
73121;DHT22;61307;49.628;-1.624;2023-08-31T00:28:48;20.90;54.40
73121;DHT22;61307;49.628;-1.624;2023-08-31T00:31:16;20.80;54.40
73121;DHT22;61307;49.628;-1.624;2023-08-31T00:33:43;20.90;54.50
73121;DHT22;61307;49.628;-1.624;2023-08-31T00:36:12;20.90;54.50
73121;DHT22;61307;49.628;-1.624;2023-08-31T00:38:39;20.90;54.50
73121;DHT22;61307;49.628;-1.624;2023-08-31T00:41:06;20.80;54.40
73121;DHT22;61307;49.628;-1.624;2023-08-31T00:43:34;20.80;54.40
73121;DHT22;61307;49.628;-1.624;2023-08-31T00:46:03;20.80;54.40
73121;DHT22;61307;49.628;-1.624;2023-08-31T00:48:31;20.90;54.50
73121;DHT22;61307;49.628;-1.624;2023-08-31T00:50:58;20.80;54.60
73121;DHT22;61307;49.628;-1.624;2023-08-31T00:53:27;20.80;54.40
73121;DHT22;61307;49.628;-1.624;2023-08-31T00:55:54;20.80;54.50
73121;DHT22;61307;49.628;-1.624;2023-08-31T00:58:22;20.80;54.40
73121;DHT22;61307;49.628;-1.624;2023-08-31T01:01:00;20.80;54.40
73121;DHT22;61307;49.628;-1.624;2023-08-31T01:03:37;20.80;54.50
73121;DHT22;61307;49.628;-1.624;2023-08-31T01:06:12;20.90;54.50
73121;DHT22;61307;49.628;-1.624;2023-08-31T01:08:46;20.80;54.50
73121;DHT22;61307;49.628;-1.624;2023-08-31T01:11:22;20.80;54.50
73121;DHT22;61307;49.628;-1.624;2023-08-31T01:13:53;20.80;54.50
73121;DHT22;61307;49.628;-1.624;2023-08-31T01:16:23;20.80;54.50
73121;DHT22;61307;49.628;-1.624;2023-08-31T01:18:53;20.80;54.50
73121;DHT22;61307;49.628;-1.624;2023-08-31T01:21:38;20.80;54.50
73121;DHT22;61307;49.628;-1.624;2023-08-31T01:24:09;20.80;54.60
73121;DHT22;61307;49.628;-1.624;2023-08-31T01:26:37;20.80;54.50
73121;DHT22;61307;49.628;-1.624;2023-08-31T01:29:45;20.80;54.50
73121;DHT22;61307;49.628;-1.624;2023-08-31T01:32:14;20.80;54.50
73121;DHT22;61307;49.628;-1.624;2023-08-31T01:34:43;20.80;54.60
73121;DHT22;61307;49.628;-1.624;2023-08-31T01:37:14;20.80;54.60
73121;DHT22;61307;49.628;-1.624;2023-08-31T01:39:51;20.70;54.50
73121;DHT22;61307;49.628;-1.624;2023-08-31T01:42:20;20.80;54.60
73121;DHT22;61307;49.628;-1.624;2023-08-31T01:44:48;20.80;54.60
73121;DHT22;61307;49.628;-1.624;2023-08-31T01:47:17;20.80;54.60
73121;DHT22;61307;49.628;-1.624;2023-08-31T01:49:45;20.80;54.60
73121;DHT22;61307;49.628;-1.624;2023-08-31T01:52:13;20.80;54.60
73121;DHT22;61307;49.628;-1.624;2023-08-31T01:54:40;20.80;54.70
73121;DHT22;61307;49.628;-1.624;2023-08-31T01:57:09;20.80;54.60
73121;DHT22;61307;49.628;-1.624;2023-08-31T01:59:36;20.70;54.50
73121;DHT22;61307;49.628;-1.624;2023-08-31T02:02:04;20.80;54.70
73121;DHT22;61307;49.628;-1.624;2023-08-31T02:04:31;20.80;54.70
73121;DHT22;61307;49.628;-1.624;2023-08-31T02:06:59;20.80;54.70
73121;DHT22;61307;49.628;-1.624;2023-08-31T02:09:26;20.80;54.70
73121;DHT22;61307;49.628;-1.624;2023-08-31T02:11:53;20.80;54.70
73121;DHT22;61307;49.628;-1.624;2023-08-31T02:14:22;20.70;54.60
73121;DHT22;61307;49.628;-1.624;2023-08-31T02:16:49;20.80;54.70
73121;DHT22;61307;49.628;-1.624;2023-08-31T02:19:17;20.70;54.60
73121;DHT22;61307;49.628;-1.624;2023-08-31T02:21:44;20.80;54.70
73121;DHT22;61307;49.628;-1.624;2023-08-31T02:24:11;20.70;54.60
73121;DHT22;61307;49.628;-1.624;2023-08-31T02:26:39;20.80;54.70
73121;DHT22;61307;49.628;-1.624;2023-08-31T02:29:07;20.70;54.60
73121;DHT22;61307;49.628;-1.624;2023-08-31T02:31:35;20.70;54.60
73121;DHT22;61307;49.628;-1.624;2023-08-31T02:34:04;20.70;54.90
73121;DHT22;61307;49.628;-1.624;2023-08-31T02:36:31;20.80;54.70
73121;DHT22;61307;49.628;-1.624;2023-08-31T02:38:59;20.80;54.70
73121;DHT22;61307;49.628;-1.624;2023-08-31T02:41:26;20.80;54.70
73121;DHT22;61307;49.628;-1.624;2023-08-31T02:43:54;20.80;54.70
73121;DHT22;61307;49.628;-1.624;2023-08-31T02:46:21;20.70;54.60
73121;DHT22;61307;49.628;-1.624;2023-08-31T02:48:50;20.80;54.80
73121;DHT22;61307;49.628;-1.624;2023-08-31T02:51:18;20.70;54.70
73121;DHT22;61307;49.628;-1.624;2023-08-31T02:53:45;20.70;54.70
73121;DHT22;61307;49.628;-1.624;2023-08-31T02:56:13;20.70;54.70
73121;DHT22;61307;49.628;-1.624;2023-08-31T02:58:55;20.70;54.70
73121;DHT22;61307;49.628;-1.624;2023-08-31T03:01:22;20.70;54.70
73121;DHT22;61307;49.628;-1.624;2023-08-31T03:04:05;20.70;54.70
73121;DHT22;61307;49.628;-1.624;2023-08-31T03:06:33;20.70;54.70
73121;DHT22;61307;49.628;-1.624;2023-08-31T03:09:00;20.70;54.70
73121;DHT22;61307;49.628;-1.624;2023-08-31T03:11:28;20.70;54.70
73121;DHT22;61307;49.628;-1.624;2023-08-31T03:13:55;20.70;54.70
73121;DHT22;61307;49.628;-1.624;2023-08-31T03:16:22;20.70;54.70
73121;DHT22;61307;49.628;-1.624;2023-08-31T03:18:50;20.70;54.80
73121;DHT22;61307;49.628;-1.624;2023-08-31T03:21:18;20.70;54.80
73121;DHT22;61307;49.628;-1.624;2023-08-31T03:23:56;20.70;54.80
73121;DHT22;61307;49.628;-1.624;2023-08-31T03:26:24;20.70;54.80
73121;DHT22;61307;49.628;-1.624;2023-08-31T03:28:51;20.70;54.80
73121;DHT22;61307;49.628;-1.624;2023-08-31T03:31:19;20.70;54.80
73121;DHT22;61307;49.628;-1.624;2023-08-31T03:33:46;20.70;54.80
73121;DHT22;61307;49.628;-1.624;2023-08-31T03:36:13;20.70;54.80
73121;DHT22;61307;49.628;-1.624;2023-08-31T03:38:42;20.70;54.80
73121;DHT22;61307;49.628;-1.624;2023-08-31T03:41:10;20.70;54.80
73121;DHT22;61307;49.628;-1.624;2023-08-31T03:43:38;20.70;54.80
73121;DHT22;61307;49.628;-1.624;2023-08-31T03:46:05;20.70;54.80
73121;DHT22;61307;49.628;-1.624;2023-08-31T03:48:32;20.70;55.50
73121;DHT22;61307;49.628;-1.624;2023-08-31T03:51:00;20.70;54.90
73121;DHT22;61307;49.628;-1.624;2023-08-31T03:53:28;20.70;54.80
73121;DHT22;61307;49.628;-1.624;2023-08-31T03:55:56;20.70;54.80
73121;DHT22;61307;49.628;-1.624;2023-08-31T03:58:24;20.70;54.90
73121;DHT22;61307;49.628;-1.624;2023-08-31T04:00:51;20.70;54.90
73121;DHT22;61307;49.628;-1.624;2023-08-31T04:03:19;20.70;54.90
73121;DHT22;61307;49.628;-1.624;2023-08-31T04:05:47;20.70;54.90
73121;DHT22;61307;49.628;-1.624;2023-08-31T04:08:14;20.70;54.90
73121;DHT22;61307;49.628;-1.624;2023-08-31T04:10:42;20.60;54.80
73121;DHT22;61307;49.628;-1.624;2023-08-31T04:13:11;20.70;55.00
73121;DHT22;61307;49.628;-1.624;2023-08-31T04:15:39;20.70;55.00
73121;DHT22;61307;49.628;-1.624;2023-08-31T04:18:06;20.70;55.00
73121;DHT22;61307;49.628;-1.624;2023-08-31T04:20:34;20.70;55.00
73121;DHT22;61307;49.628;-1.624;2023-08-31T04:23:01;20.70;55.00
73121;DHT22;61307;49.628;-1.624;2023-08-31T04:25:29;20.70;55.00
73121;DHT22;61307;49.628;-1.624;2023-08-31T04:27:57;20.70;55.10
73121;DHT22;61307;49.628;-1.624;2023-08-31T04:30:26;20.70;55.10
73121;DHT22;61307;49.628;-1.624;2023-08-31T04:32:53;20.70;55.10
73121;DHT22;61307;49.628;-1.624;2023-08-31T04:35:21;20.60;55.00
73121;DHT22;61307;49.628;-1.624;2023-08-31T04:37:48;20.60;55.00
73121;DHT22;61307;49.628;-1.624;2023-08-31T04:40:16;20.70;55.10
73121;DHT22;61307;49.628;-1.624;2023-08-31T04:42:43;20.70;55.10
73121;DHT22;61307;49.628;-1.624;2023-08-31T04:45:11;20.70;55.10
73121;DHT22;61307;49.628;-1.624;2023-08-31T04:47:39;20.70;55.10
73121;DHT22;61307;49.628;-1.624;2023-08-31T04:50:08;20.70;55.10
73121;DHT22;61307;49.628;-1.624;2023-08-31T04:52:36;20.60;55.10
73121;DHT22;61307;49.628;-1.624;2023-08-31T04:55:05;20.70;55.20
73121;DHT22;61307;49.628;-1.624;2023-08-31T04:57:33;20.70;55.20
73121;DHT22;61307;49.628;-1.624;2023-08-31T05:00:01;20.60;55.10
73121;DHT22;61307;49.628;-1.624;2023-08-31T05:02:31;20.60;55.10
73121;DHT22;61307;49.628;-1.624;2023-08-31T05:04:59;20.70;55.30
73121;DHT22;61307;49.628;-1.624;2023-08-31T05:07:26;20.60;55.20
73121;DHT22;61307;49.628;-1.624;2023-08-31T05:09:53;20.60;55.20
73121;DHT22;61307;49.628;-1.624;2023-08-31T05:12:21;20.60;55.20
73121;DHT22;61307;49.628;-1.624;2023-08-31T05:14:49;20.60;55.20
73121;DHT22;61307;49.628;-1.624;2023-08-31T05:17:16;20.60;55.30
73121;DHT22;61307;49.628;-1.624;2023-08-31T05:19:43;20.50;55.20
73121;DHT22;61307;49.628;-1.624;2023-08-31T05:22:12;20.60;55.30
73121;DHT22;61307;49.628;-1.624;2023-08-31T05:24:39;20.70;56.10
73121;DHT22;61307;49.628;-1.624;2023-08-31T05:27:07;20.60;55.30
73121;DHT22;61307;49.628;-1.624;2023-08-31T05:29:34;20.60;55.30
73121;DHT22;61307;49.628;-1.624;2023-08-31T05:32:02;20.60;55.40
73121;DHT22;61307;49.628;-1.624;2023-08-31T05:34:29;19.40;59.40
73121;DHT22;61307;49.628;-1.624;2023-08-31T05:37:02;20.60;55.40
73121;DHT22;61307;49.628;-1.624;2023-08-31T05:39:31;20.60;55.40
73121;DHT22;61307;49.628;-1.624;2023-08-31T05:41:59;20.60;55.40
73121;DHT22;61307;49.628;-1.624;2023-08-31T05:44:33;20.70;55.50
73121;DHT22;61307;49.628;-1.624;2023-08-31T05:47:00;20.70;55.60
73121;DHT22;61307;49.628;-1.624;2023-08-31T05:49:29;20.60;55.50
73121;DHT22;61307;49.628;-1.624;2023-08-31T05:51:57;20.70;55.60
73121;DHT22;61307;49.628;-1.624;2023-08-31T05:54:24;20.60;55.60
73121;DHT22;61307;49.628;-1.624;2023-08-31T05:56:54;20.60;55.60
73121;DHT22;61307;49.628;-1.624;2023-08-31T05:59:22;20.70;55.70
73121;DHT22;61307;49.628;-1.624;2023-08-31T06:02:34;20.60;56.30
73121;DHT22;61307;49.628;-1.624;2023-08-31T06:05:03;20.70;55.80
73121;DHT22;61307;49.628;-1.624;2023-08-31T06:07:31;20.60;55.70
73121;DHT22;61307;49.628;-1.624;2023-08-31T06:09:59;20.60;55.70
73121;DHT22;61307;49.628;-1.624;2023-08-31T06:15:10;20.60;55.80
73121;DHT22;61307;49.628;-1.624;2023-08-31T06:17:38;20.60;55.80
73121;DHT22;61307;49.628;-1.624;2023-08-31T06:20:06;20.60;55.90
73121;DHT22;61307;49.628;-1.624;2023-08-31T06:22:34;20.60;56.00
73121;DHT22;61307;49.628;-1.624;2023-08-31T06:25:02;20.60;56.00
73121;DHT22;61307;49.628;-1.624;2023-08-31T06:27:32;20.60;56.00
73121;DHT22;61307;49.628;-1.624;2023-08-31T06:30:01;20.60;56.70
73121;DHT22;61307;49.628;-1.624;2023-08-31T06:32:29;20.60;56.00
73121;DHT22;61307;49.628;-1.624;2023-08-31T06:34:57;20.60;56.10
73121;DHT22;61307;49.628;-1.624;2023-08-31T06:37:24;20.60;56.10
73121;DHT22;61307;49.628;-1.624;2023-08-31T06:39:52;20.60;56.10
73121;DHT22;61307;49.628;-1.624;2023-08-31T06:42:19;20.60;56.10
73121;DHT22;61307;49.628;-1.624;2023-08-31T06:44:48;20.70;56.20
73121;DHT22;61307;49.628;-1.624;2023-08-31T06:47:15;20.60;56.10
73121;DHT22;61307;49.628;-1.624;2023-08-31T06:49:43;20.60;56.10
73121;DHT22;61307;49.628;-1.624;2023-08-31T06:52:10;20.60;56.10
73121;DHT22;61307;49.628;-1.624;2023-08-31T06:54:38;20.60;56.20
73121;DHT22;61307;49.628;-1.624;2023-08-31T06:57:05;20.60;56.20
73121;DHT22;61307;49.628;-1.624;2023-08-31T06:59:33;20.60;56.80
73121;DHT22;61307;49.628;-1.624;2023-08-31T07:02:01;20.60;56.10
73121;DHT22;61307;49.628;-1.624;2023-08-31T07:04:29;20.60;56.10
73121;DHT22;61307;49.628;-1.624;2023-08-31T07:06:56;20.60;56.10
73121;DHT22;61307;49.628;-1.624;2023-08-31T07:09:23;20.60;56.10
73121;DHT22;61307;49.628;-1.624;2023-08-31T07:11:53;20.60;56.10
73121;DHT22;61307;49.628;-1.624;2023-08-31T07:14:21;20.60;56.10
73121;DHT22;61307;49.628;-1.624;2023-08-31T07:16:48;20.70;56.20
73121;DHT22;61307;49.628;-1.624;2023-08-31T07:19:17;20.70;56.20
73121;DHT22;61307;49.628;-1.624;2023-08-31T07:21:44;20.70;56.40
73121;DHT22;61307;49.628;-1.624;2023-08-31T07:24:13;20.70;56.40
73121;DHT22;61307;49.628;-1.624;2023-08-31T07:26:40;20.80;56.60
73121;DHT22;61307;49.628;-1.624;2023-08-31T07:29:08;20.80;56.70
73121;DHT22;61307;49.628;-1.624;2023-08-31T07:31:35;20.80;56.70
73121;DHT22;61307;49.628;-1.624;2023-08-31T07:34:03;20.80;56.70
73121;DHT22;61307;49.628;-1.624;2023-08-31T07:36:31;20.90;56.80
73121;DHT22;61307;49.628;-1.624;2023-08-31T07:38:59;20.90;56.80
73121;DHT22;61307;49.628;-1.624;2023-08-31T07:41:27;21.00;56.90
73121;DHT22;61307;49.628;-1.624;2023-08-31T07:43:54;21.00;57.50
73121;DHT22;61307;49.628;-1.624;2023-08-31T07:46:21;21.00;57.00
73121;DHT22;61307;49.628;-1.624;2023-08-31T07:48:49;21.00;57.00
73121;DHT22;61307;49.628;-1.624;2023-08-31T07:51:17;21.00;57.00
73121;DHT22;61307;49.628;-1.624;2023-08-31T07:53:50;21.10;57.00
73121;DHT22;61307;49.628;-1.624;2023-08-31T07:56:17;21.20;57.10
73121;DHT22;61307;49.628;-1.624;2023-08-31T07:58:45;21.20;57.00
73121;DHT22;61307;49.628;-1.624;2023-08-31T08:01:12;21.20;57.10
73121;DHT22;61307;49.628;-1.624;2023-08-31T08:03:39;21.20;57.10
73121;DHT22;61307;49.628;-1.624;2023-08-31T08:06:07;21.20;57.10
73121;DHT22;61307;49.628;-1.624;2023-08-31T08:08:34;21.20;57.30
73121;DHT22;61307;49.628;-1.624;2023-08-31T08:11:04;21.30;57.40
73121;DHT22;61307;49.628;-1.624;2023-08-31T08:13:32;21.30;57.40
73121;DHT22;61307;49.628;-1.624;2023-08-31T08:16:00;21.30;57.40
73121;DHT22;61307;49.628;-1.624;2023-08-31T08:18:27;21.30;57.40
73121;DHT22;61307;49.628;-1.624;2023-08-31T08:20:54;21.30;57.40
73121;DHT22;61307;49.628;-1.624;2023-08-31T08:23:21;21.30;58.00
73121;DHT22;61307;49.628;-1.624;2023-08-31T08:25:49;21.40;57.50
73121;DHT22;61307;49.628;-1.624;2023-08-31T08:28:18;21.40;57.50
73121;DHT22;61307;49.628;-1.624;2023-08-31T08:30:45;21.40;57.70
73121;DHT22;61307;49.628;-1.624;2023-08-31T08:33:13;21.40;57.60
73121;DHT22;61307;49.628;-1.624;2023-08-31T08:35:40;21.40;57.60
73121;DHT22;61307;49.628;-1.624;2023-08-31T08:38:08;21.40;57.60
73121;DHT22;61307;49.628;-1.624;2023-08-31T08:40:35;21.30;57.50
73121;DHT22;61307;49.628;-1.624;2023-08-31T08:43:06;21.50;57.70
73121;DHT22;61307;49.628;-1.624;2023-08-31T08:45:38;21.40;57.60
73121;DHT22;61307;49.628;-1.624;2023-08-31T08:48:08;21.40;57.60
73121;DHT22;61307;49.628;-1.624;2023-08-31T08:50:36;21.40;57.60
73121;DHT22;61307;49.628;-1.624;2023-08-31T08:53:05;21.40;57.70
73121;DHT22;61307;49.628;-1.624;2023-08-31T08:55:32;21.40;57.70
73121;DHT22;61307;49.628;-1.624;2023-08-31T08:58:01;21.40;57.70
73121;DHT22;61307;49.628;-1.624;2023-08-31T09:01:05;21.50;57.80
73121;DHT22;61307;49.628;-1.624;2023-08-31T09:03:32;21.50;57.90
73121;DHT22;61307;49.628;-1.624;2023-08-31T09:06:00;21.40;57.70
73121;DHT22;61307;49.628;-1.624;2023-08-31T09:08:29;21.50;57.90
73121;DHT22;61307;49.628;-1.624;2023-08-31T09:10:57;21.40;57.80
73121;DHT22;61307;49.628;-1.624;2023-08-31T09:13:26;21.40;57.90
73121;DHT22;61307;49.628;-1.624;2023-08-31T09:15:55;21.50;58.00
73121;DHT22;61307;49.628;-1.624;2023-08-31T09:18:26;21.40;57.90
73121;DHT22;61307;49.628;-1.624;2023-08-31T09:20:55;21.50;58.00
73121;DHT22;61307;49.628;-1.624;2023-08-31T09:23:24;21.50;58.00
73121;DHT22;61307;49.628;-1.624;2023-08-31T09:25:53;21.50;58.00
73121;DHT22;61307;49.628;-1.624;2023-08-31T09:28:21;21.50;58.00
73121;DHT22;61307;49.628;-1.624;2023-08-31T09:30:50;21.50;58.10
73121;DHT22;61307;49.628;-1.624;2023-08-31T09:33:19;21.60;58.20
73121;DHT22;61307;49.628;-1.624;2023-08-31T09:35:50;21.60;58.20
73121;DHT22;61307;49.628;-1.624;2023-08-31T09:38:17;21.60;58.20
73121;DHT22;61307;49.628;-1.624;2023-08-31T09:40:45;21.60;58.20
73121;DHT22;61307;49.628;-1.624;2023-08-31T09:43:19;21.50;58.70
73121;DHT22;61307;49.628;-1.624;2023-08-31T09:45:47;21.50;58.20
73121;DHT22;61307;49.628;-1.624;2023-08-31T09:48:16;21.60;58.30
73121;DHT22;61307;49.628;-1.624;2023-08-31T09:50:44;21.60;58.20
73121;DHT22;61307;49.628;-1.624;2023-08-31T09:53:16;21.60;58.20
73121;DHT22;61307;49.628;-1.624;2023-08-31T09:55:47;21.60;58.20
73121;DHT22;61307;49.628;-1.624;2023-08-31T09:58:18;21.60;58.20
73121;DHT22;61307;49.628;-1.624;2023-08-31T10:01:16;21.70;58.30
73121;DHT22;61307;49.628;-1.624;2023-08-31T10:03:44;21.60;58.30
73121;DHT22;61307;49.628;-1.624;2023-08-31T10:06:12;21.70;58.40
73121;DHT22;61307;49.628;-1.624;2023-08-31T10:08:41;21.70;58.30
73121;DHT22;61307;49.628;-1.624;2023-08-31T10:11:10;21.70;58.30
73121;DHT22;61307;49.628;-1.624;2023-08-31T10:13:41;21.80;58.40
73121;DHT22;61307;49.628;-1.624;2023-08-31T10:16:10;21.80;58.40
73121;DHT22;61307;49.628;-1.624;2023-08-31T10:18:38;21.70;58.30
73121;DHT22;61307;49.628;-1.624;2023-08-31T10:21:05;21.70;58.30
73121;DHT22;61307;49.628;-1.624;2023-08-31T10:23:33;21.70;58.30
73121;DHT22;61307;49.628;-1.624;2023-08-31T10:26:06;21.70;58.40
73121;DHT22;61307;49.628;-1.624;2023-08-31T10:28:40;21.60;58.30
73121;DHT22;61307;49.628;-1.624;2023-08-31T10:31:09;21.70;58.60
73121;DHT22;61307;49.628;-1.624;2023-08-31T10:33:40;21.70;58.50
73121;DHT22;61307;49.628;-1.624;2023-08-31T10:36:13;21.60;58.40
73121;DHT22;61307;49.628;-1.624;2023-08-31T10:38:42;21.60;58.40
73121;DHT22;61307;49.628;-1.624;2023-08-31T10:41:22;21.70;58.50
73121;DHT22;61307;49.628;-1.624;2023-08-31T10:43:52;21.60;59.10
73121;DHT22;61307;49.628;-1.624;2023-08-31T10:46:27;21.60;58.50
73121;DHT22;61307;49.628;-1.624;2023-08-31T10:48:56;21.70;58.70
73121;DHT22;61307;49.628;-1.624;2023-08-31T10:51:25;21.60;58.70
73121;DHT22;61307;49.628;-1.624;2023-08-31T10:54:06;21.60;58.70
73121;DHT22;61307;49.628;-1.624;2023-08-31T10:57:01;21.70;58.90
73121;DHT22;61307;49.628;-1.624;2023-08-31T10:59:45;21.70;59.00
73121;DHT22;61307;49.628;-1.624;2023-08-31T11:02:34;21.60;58.90
73121;DHT22;61307;49.628;-1.624;2023-08-31T11:05:17;21.60;59.00
73121;DHT22;61307;49.628;-1.624;2023-08-31T11:07:49;21.60;59.00
73121;DHT22;61307;49.628;-1.624;2023-08-31T11:10:38;21.50;59.00
73121;DHT22;61307;49.628;-1.624;2023-08-31T11:13:15;21.60;59.10
73121;DHT22;61307;49.628;-1.624;2023-08-31T11:15:46;21.70;59.30
73121;DHT22;61307;49.628;-1.624;2023-08-31T11:18:13;21.60;59.20
73121;DHT22;61307;49.628;-1.624;2023-08-31T11:20:43;21.60;59.30
73121;DHT22;61307;49.628;-1.624;2023-08-31T11:23:11;21.60;59.30
73121;DHT22;61307;49.628;-1.624;2023-08-31T11:25:39;21.60;59.40
73121;DHT22;61307;49.628;-1.624;2023-08-31T11:28:07;21.60;59.50
73121;DHT22;61307;49.628;-1.624;2023-08-31T11:32:45;21.60;59.40
73121;DHT22;61307;49.628;-1.624;2023-08-31T11:33:47;21.60;59.40
73121;DHT22;61307;49.628;-1.624;2023-08-31T11:36:15;21.70;59.60
73121;DHT22;61307;49.628;-1.624;2023-08-31T11:38:43;21.60;59.50
73121;DHT22;61307;49.628;-1.624;2023-08-31T11:43:53;21.60;59.60
73121;DHT22;61307;49.628;-1.624;2023-08-31T11:49:58;21.60;59.70
73121;DHT22;61307;49.628;-1.624;2023-08-31T11:52:27;21.60;59.80
73121;DHT22;61307;49.628;-1.624;2023-08-31T11:54:55;21.60;59.90
73121;DHT22;61307;49.628;-1.624;2023-08-31T11:57:26;21.60;60.70
73121;DHT22;61307;49.628;-1.624;2023-08-31T12:00:02;21.60;60.20
73121;DHT22;61307;49.628;-1.624;2023-08-31T12:02:36;21.60;60.20
73121;DHT22;61307;49.628;-1.624;2023-08-31T12:05:04;21.70;60.40
73121;DHT22;61307;49.628;-1.624;2023-08-31T12:07:32;21.70;60.50
73121;DHT22;61307;49.628;-1.624;2023-08-31T12:10:07;21.80;60.70
73121;DHT22;61307;49.628;-1.624;2023-08-31T12:12:37;21.70;60.90
73121;DHT22;61307;49.628;-1.624;2023-08-31T12:15:07;21.80;61.60
73121;DHT22;61307;49.628;-1.624;2023-08-31T12:17:38;21.80;62.10
73121;DHT22;61307;49.628;-1.624;2023-08-31T12:20:07;21.90;61.90
73121;DHT22;61307;49.628;-1.624;2023-08-31T12:22:35;22.00;62.10
73121;DHT22;61307;49.628;-1.624;2023-08-31T12:25:03;22.00;62.20
73121;DHT22;61307;49.628;-1.624;2023-08-31T12:27:31;22.00;62.10
73121;DHT22;61307;49.628;-1.624;2023-08-31T12:29:58;22.10;61.90
73121;DHT22;61307;49.628;-1.624;2023-08-31T12:32:26;22.20;62.10
73121;DHT22;61307;49.628;-1.624;2023-08-31T12:34:53;22.20;62.20
73121;DHT22;61307;49.628;-1.624;2023-08-31T12:37:20;22.20;62.00
73121;DHT22;61307;49.628;-1.624;2023-08-31T12:39:47;22.30;62.30
73121;DHT22;61307;49.628;-1.624;2023-08-31T12:42:14;22.40;62.40
73121;DHT22;61307;49.628;-1.624;2023-08-31T12:44:42;22.40;62.40
73121;DHT22;61307;49.628;-1.624;2023-08-31T12:47:09;22.40;62.40
73121;DHT22;61307;49.628;-1.624;2023-08-31T12:49:37;22.50;62.10
73121;DHT22;61307;49.628;-1.624;2023-08-31T12:52:05;22.50;62.10
73121;DHT22;61307;49.628;-1.624;2023-08-31T12:54:35;22.50;62.80
73121;DHT22;61307;49.628;-1.624;2023-08-31T12:57:02;22.60;62.30
73121;DHT22;61307;49.628;-1.624;2023-08-31T12:59:30;22.60;62.20
73121;DHT22;61307;49.628;-1.624;2023-08-31T13:01:58;22.60;62.30
73121;DHT22;61307;49.628;-1.624;2023-08-31T13:04:25;22.70;62.30
73121;DHT22;61307;49.628;-1.624;2023-08-31T13:06:54;22.70;62.10
73121;DHT22;61307;49.628;-1.624;2023-08-31T13:09:21;22.60;62.00
73121;DHT22;61307;49.628;-1.624;2023-08-31T13:11:49;22.70;62.10
73121;DHT22;61307;49.628;-1.624;2023-08-31T13:14:17;22.60;62.20
73121;DHT22;61307;49.628;-1.624;2023-08-31T13:16:44;22.60;62.20
73121;DHT22;61307;49.628;-1.624;2023-08-31T13:19:11;22.60;62.20
73121;DHT22;61307;49.628;-1.624;2023-08-31T13:21:39;22.60;62.20
73121;DHT22;61307;49.628;-1.624;2023-08-31T13:24:12;22.60;62.20
73121;DHT22;61307;49.628;-1.624;2023-08-31T13:32:49;22.60;62.40
73121;DHT22;61307;49.628;-1.624;2023-08-31T13:35:17;22.60;62.30
73121;DHT22;61307;49.628;-1.624;2023-08-31T13:37:44;22.60;62.30
73121;DHT22;61307;49.628;-1.624;2023-08-31T13:40:37;22.70;62.50
73121;DHT22;61307;49.628;-1.624;2023-08-31T13:43:04;22.70;62.60
73121;DHT22;61307;49.628;-1.624;2023-08-31T13:45:35;22.60;62.50
73121;DHT22;61307;49.628;-1.624;2023-08-31T13:48:05;22.60;62.60
73121;DHT22;61307;49.628;-1.624;2023-08-31T13:50:34;22.60;62.70
73121;DHT22;61307;49.628;-1.624;2023-08-31T13:53:15;22.60;62.60
73121;DHT22;61307;49.628;-1.624;2023-08-31T13:55:47;22.60;62.60
73121;DHT22;61307;49.628;-1.624;2023-08-31T13:58:15;22.60;62.80
73121;DHT22;61307;49.628;-1.624;2023-08-31T14:00:42;22.60;62.80
73121;DHT22;61307;49.628;-1.624;2023-08-31T14:03:10;22.60;62.80
73121;DHT22;61307;49.628;-1.624;2023-08-31T14:05:37;22.60;63.60
73121;DHT22;61307;49.628;-1.624;2023-08-31T14:08:06;22.70;62.90
73121;DHT22;61307;49.628;-1.624;2023-08-31T14:10:33;22.60;63.00
73121;DHT22;61307;49.628;-1.624;2023-08-31T14:13:02;22.60;63.80
73121;DHT22;61307;49.628;-1.624;2023-08-31T14:15:32;22.60;63.00
73121;DHT22;61307;49.628;-1.624;2023-08-31T14:18:00;22.60;63.80
73121;DHT22;61307;49.628;-1.624;2023-08-31T14:20:45;22.70;63.10
73121;DHT22;61307;49.628;-1.624;2023-08-31T14:23:17;22.60;63.50
73121;DHT22;61307;49.628;-1.624;2023-08-31T14:25:45;22.60;64.00
73121;DHT22;61307;49.628;-1.624;2023-08-31T14:28:16;22.60;64.60
73121;DHT22;61307;49.628;-1.624;2023-08-31T14:30:49;22.60;64.30
73121;DHT22;61307;49.628;-1.624;2023-08-31T14:33:17;22.60;64.50
73121;DHT22;61307;49.628;-1.624;2023-08-31T14:35:44;22.70;64.70
73121;DHT22;61307;49.628;-1.624;2023-08-31T14:38:12;22.70;64.50
73121;DHT22;61307;49.628;-1.624;2023-08-31T14:40:47;22.70;64.30
73121;DHT22;61307;49.628;-1.624;2023-08-31T14:43:21;22.70;64.30
73121;DHT22;61307;49.628;-1.624;2023-08-31T14:45:49;22.60;64.00
73121;DHT22;61307;49.628;-1.624;2023-08-31T14:48:16;22.70;64.20
73121;DHT22;61307;49.628;-1.624;2023-08-31T14:50:57;22.70;64.10
73121;DHT22;61307;49.628;-1.624;2023-08-31T14:53:27;22.70;64.10
73121;DHT22;61307;49.628;-1.624;2023-08-31T14:56:13;22.70;64.10
73121;DHT22;61307;49.628;-1.624;2023-08-31T14:58:41;22.70;64.00
73121;DHT22;61307;49.628;-1.624;2023-08-31T15:01:09;22.80;64.00
73121;DHT22;61307;49.628;-1.624;2023-08-31T15:03:36;22.80;63.90
73121;DHT22;61307;49.628;-1.624;2023-08-31T15:06:13;22.80;64.00
73121;DHT22;61307;49.628;-1.624;2023-08-31T15:08:40;22.80;63.80
73121;DHT22;61307;49.628;-1.624;2023-08-31T15:11:08;22.80;63.90
73121;DHT22;61307;49.628;-1.624;2023-08-31T15:13:35;22.80;64.10
73121;DHT22;61307;49.628;-1.624;2023-08-31T15:16:18;22.90;64.00
73121;DHT22;61307;49.628;-1.624;2023-08-31T15:18:46;22.90;64.00
73121;DHT22;61307;49.628;-1.624;2023-08-31T15:21:27;22.90;64.00
73121;DHT22;61307;49.628;-1.624;2023-08-31T15:23:56;22.90;64.00
73121;DHT22;61307;49.628;-1.624;2023-08-31T15:26:23;22.90;64.00
73121;DHT22;61307;49.628;-1.624;2023-08-31T15:28:51;23.00;64.00
73121;DHT22;61307;49.628;-1.624;2023-08-31T15:31:20;23.00;64.00
73121;DHT22;61307;49.628;-1.624;2023-08-31T15:33:48;23.00;64.20
73121;DHT22;61307;49.628;-1.624;2023-08-31T15:39:15;23.00;64.30
73121;DHT22;61307;49.628;-1.624;2023-08-31T15:41:45;23.10;64.20
73121;DHT22;61307;49.628;-1.624;2023-08-31T15:44:13;23.00;64.10
73121;DHT22;61307;49.628;-1.624;2023-08-31T15:46:41;23.00;64.10
73121;DHT22;61307;49.628;-1.624;2023-08-31T15:49:22;23.00;64.00